Terminal Aerodrome Forecast
Issued by NWS

Home | Current Version | Previous Version | Text Only | Print | Product List | Glossary On
Versions: 1 2 3 4 5 6 7 8 9 10 11 12 13
000
FTUS46 KPDT 311720
TAFPSC
TAF
KPSC 311720Z 3118/0118 VRB05KT P6SM FEW300
     FM010400 VRB05KT P6SM FEW200
     FM011500 VRB04KT P6SM FEW300=

USA.gov is the U.S. government's official web portal to all federal, state and local government web resources and services.